sensor_id;sensor_type;location;lat;lon;timestamp;P1;durP1;ratioP1;P2;durP2;ratioP2
12760;SDS011;6444;49.742;6.114;2023-04-09T00:00:39;21.00;;;15.50;;
12760;SDS011;6444;49.742;6.114;2023-04-09T00:03:06;26.70;;;16.60;;
12760;SDS011;6444;49.742;6.114;2023-04-09T00:05:36;26.07;;;16.90;;
12760;SDS011;6444;49.742;6.114;2023-04-09T00:07:59;23.83;;;15.67;;
12760;SDS011;6444;49.742;6.114;2023-04-09T00:10:27;23.87;;;16.70;;
12760;SDS011;6444;49.742;6.114;2023-04-09T00:12:53;25.33;;;16.43;;
12760;SDS011;6444;49.742;6.114;2023-04-09T00:15:20;29.53;;;17.13;;
12760;SDS011;6444;49.742;6.114;2023-04-09T00:17:46;23.23;;;17.47;;
12760;SDS011;6444;49.742;6.114;2023-04-09T00:20:13;23.00;;;16.87;;
12760;SDS011;6444;49.742;6.114;2023-04-09T00:22:40;25.87;;;17.97;;
12760;SDS011;6444;49.742;6.114;2023-04-09T00:25:07;22.13;;;15.97;;
12760;SDS011;6444;49.742;6.114;2023-04-09T00:27:34;24.60;;;16.57;;
12760;SDS011;6444;49.742;6.114;2023-04-09T00:30:00;27.10;;;16.10;;
12760;SDS011;6444;49.742;6.114;2023-04-09T00:32:27;25.40;;;16.97;;
12760;SDS011;6444;49.742;6.114;2023-04-09T00:34:54;24.93;;;17.13;;
12760;SDS011;6444;49.742;6.114;2023-04-09T00:37:20;25.37;;;16.60;;
12760;SDS011;6444;49.742;6.114;2023-04-09T00:39:48;24.63;;;16.50;;
12760;SDS011;6444;49.742;6.114;2023-04-09T00:42:14;25.67;;;16.77;;
12760;SDS011;6444;49.742;6.114;2023-04-09T00:44:41;26.53;;;16.87;;
12760;SDS011;6444;49.742;6.114;2023-04-09T00:47:08;21.60;;;15.40;;
12760;SDS011;6444;49.742;6.114;2023-04-09T00:49:34;24.30;;;16.27;;
12760;SDS011;6444;49.742;6.114;2023-04-09T00:52:02;26.73;;;17.27;;
12760;SDS011;6444;49.742;6.114;2023-04-09T00:54:28;23.80;;;16.70;;
12760;SDS011;6444;49.742;6.114;2023-04-09T00:56:55;27.30;;;17.97;;
12760;SDS011;6444;49.742;6.114;2023-04-09T00:59:23;26.77;;;17.27;;
12760;SDS011;6444;49.742;6.114;2023-04-09T01:01:48;29.43;;;18.50;;
12760;SDS011;6444;49.742;6.114;2023-04-09T01:04:15;26.97;;;17.47;;
12760;SDS011;6444;49.742;6.114;2023-04-09T01:12:04;33.47;;;20.50;;
12760;SDS011;6444;49.742;6.114;2023-04-09T01:14:36;32.53;;;21.53;;
12760;SDS011;6444;49.742;6.114;2023-04-09T01:17:10;34.13;;;20.53;;
12760;SDS011;6444;49.742;6.114;2023-04-09T01:19:50;35.35;;;24.85;;
12760;SDS011;6444;49.742;6.114;2023-04-09T01:22:28;29.80;;;20.47;;
12760;SDS011;6444;49.742;6.114;2023-04-09T01:24:56;31.63;;;20.47;;
12760;SDS011;6444;49.742;6.114;2023-04-09T01:27:17;32.97;;;20.73;;
12760;SDS011;6444;49.742;6.114;2023-04-09T01:29:47;29.63;;;19.67;;
12760;SDS011;6444;49.742;6.114;2023-04-09T01:32:10;30.30;;;19.10;;
12760;SDS011;6444;49.742;6.114;2023-04-09T01:34:37;30.47;;;18.67;;
12760;SDS011;6444;49.742;6.114;2023-04-09T01:37:04;32.23;;;20.53;;
12760;SDS011;6444;49.742;6.114;2023-04-09T01:39:31;27.10;;;18.97;;
12760;SDS011;6444;49.742;6.114;2023-04-09T01:41:57;30.37;;;19.20;;
12760;SDS011;6444;49.742;6.114;2023-04-09T01:44:24;28.97;;;18.70;;
12760;SDS011;6444;49.742;6.114;2023-04-09T01:46:53;33.30;;;19.67;;
12760;SDS011;6444;49.742;6.114;2023-04-09T01:49:20;29.87;;;19.17;;
12760;SDS011;6444;49.742;6.114;2023-04-09T01:51:47;33.40;;;19.60;;
12760;SDS011;6444;49.742;6.114;2023-04-09T01:54:14;38.30;;;26.52;;
12760;SDS011;6444;49.742;6.114;2023-04-09T01:56:43;29.93;;;20.67;;
12760;SDS011;6444;49.742;6.114;2023-04-09T01:59:06;31.57;;;21.30;;
12760;SDS011;6444;49.742;6.114;2023-04-09T02:04:32;31.53;;;18.67;;
12760;SDS011;6444;49.742;6.114;2023-04-09T02:07:07;31.07;;;20.03;;
12760;SDS011;6444;49.742;6.114;2023-04-09T02:09:32;33.90;;;21.07;;
12760;SDS011;6444;49.742;6.114;2023-04-09T02:11:59;29.77;;;18.87;;
12760;SDS011;6444;49.742;6.114;2023-04-09T02:14:25;36.30;;;21.20;;
12760;SDS011;6444;49.742;6.114;2023-04-09T02:16:52;34.50;;;20.80;;
12760;SDS011;6444;49.742;6.114;2023-04-09T02:19:19;34.07;;;19.43;;
12760;SDS011;6444;49.742;6.114;2023-04-09T02:21:45;42.27;;;21.70;;
12760;SDS011;6444;49.742;6.114;2023-04-09T02:24:12;36.97;;;22.13;;
12760;SDS011;6444;49.742;6.114;2023-04-09T02:26:39;35.37;;;22.00;;
12760;SDS011;6444;49.742;6.114;2023-04-09T02:29:05;35.63;;;21.87;;
12760;SDS011;6444;49.742;6.114;2023-04-09T02:31:32;33.83;;;20.73;;
12760;SDS011;6444;49.742;6.114;2023-04-09T02:33:59;42.78;;;28.70;;
12760;SDS011;6444;49.742;6.114;2023-04-09T02:36:25;35.60;;;22.03;;
12760;SDS011;6444;49.742;6.114;2023-04-09T02:38:52;35.70;;;22.30;;
12760;SDS011;6444;49.742;6.114;2023-04-09T02:41:18;36.07;;;21.50;;
12760;SDS011;6444;49.742;6.114;2023-04-09T02:43:45;36.57;;;21.20;;
12760;SDS011;6444;49.742;6.114;2023-04-09T02:46:12;34.10;;;21.43;;
12760;SDS011;6444;49.742;6.114;2023-04-09T02:48:38;37.00;;;22.23;;
12760;SDS011;6444;49.742;6.114;2023-04-09T02:51:05;37.10;;;21.43;;
12760;SDS011;6444;49.742;6.114;2023-04-09T02:53:32;34.80;;;21.07;;
12760;SDS011;6444;49.742;6.114;2023-04-09T02:55:58;36.33;;;21.27;;
12760;SDS011;6444;49.742;6.114;2023-04-09T02:58:25;37.30;;;21.17;;
12760;SDS011;6444;49.742;6.114;2023-04-09T03:00:51;38.37;;;21.47;;
12760;SDS011;6444;49.742;6.114;2023-04-09T03:03:18;39.43;;;21.53;;
12760;SDS011;6444;49.742;6.114;2023-04-09T03:05:45;33.73;;;20.70;;
12760;SDS011;6444;49.742;6.114;2023-04-09T03:08:12;36.23;;;22.10;;
12760;SDS011;6444;49.742;6.114;2023-04-09T03:10:39;44.77;;;25.23;;
12760;SDS011;6444;49.742;6.114;2023-04-09T03:13:05;35.70;;;21.00;;
12760;SDS011;6444;49.742;6.114;2023-04-09T03:15:32;44.70;;;22.67;;
12760;SDS011;6444;49.742;6.114;2023-04-09T03:17:59;42.43;;;22.77;;
12760;SDS011;6444;49.742;6.114;2023-04-09T03:20:25;42.80;;;23.80;;
12760;SDS011;6444;49.742;6.114;2023-04-09T03:22:52;42.70;;;24.03;;
12760;SDS011;6444;49.742;6.114;2023-04-09T03:25:19;62.10;;;36.05;;
12760;SDS011;6444;49.742;6.114;2023-04-09T03:27:45;64.62;;;37.70;;
12760;SDS011;6444;49.742;6.114;2023-04-09T03:30:12;61.90;;;31.30;;
12760;SDS011;6444;49.742;6.114;2023-04-09T03:32:38;57.63;;;28.37;;
12760;SDS011;6444;49.742;6.114;2023-04-09T03:35:05;51.27;;;26.53;;
12760;SDS011;6444;49.742;6.114;2023-04-09T03:37:32;49.63;;;26.43;;
12760;SDS011;6444;49.742;6.114;2023-04-09T03:39:59;52.10;;;26.13;;
12760;SDS011;6444;49.742;6.114;2023-04-09T03:42:26;55.63;;;27.97;;
12760;SDS011;6444;49.742;6.114;2023-04-09T03:44:52;53.30;;;27.30;;
12760;SDS011;6444;49.742;6.114;2023-04-09T03:47:20;55.07;;;26.70;;
12760;SDS011;6444;49.742;6.114;2023-04-09T03:49:46;52.30;;;26.43;;
12760;SDS011;6444;49.742;6.114;2023-04-09T03:52:13;62.87;;;28.13;;
12760;SDS011;6444;49.742;6.114;2023-04-09T03:54:40;57.93;;;27.63;;
12760;SDS011;6444;49.742;6.114;2023-04-09T03:57:07;59.47;;;27.67;;
12760;SDS011;6444;49.742;6.114;2023-04-09T03:59:34;58.97;;;28.97;;
12760;SDS011;6444;49.742;6.114;2023-04-09T04:02:00;60.13;;;28.73;;
12760;SDS011;6444;49.742;6.114;2023-04-09T04:04:27;62.30;;;29.43;;
12760;SDS011;6444;49.742;6.114;2023-04-09T04:06:54;61.63;;;28.63;;
12760;SDS011;6444;49.742;6.114;2023-04-09T04:09:21;67.67;;;29.43;;
12760;SDS011;6444;49.742;6.114;2023-04-09T04:11:47;62.30;;;30.23;;
12760;SDS011;6444;49.742;6.114;2023-04-09T04:14:14;62.30;;;30.77;;
12760;SDS011;6444;49.742;6.114;2023-04-09T04:16:41;62.67;;;28.57;;
12760;SDS011;6444;49.742;6.114;2023-04-09T04:19:07;67.57;;;29.83;;
12760;SDS011;6444;49.742;6.114;2023-04-09T04:21:34;70.93;;;30.67;;
12760;SDS011;6444;49.742;6.114;2023-04-09T04:24:01;103.20;;;48.00;;
12760;SDS011;6444;49.742;6.114;2023-04-09T04:26:27;86.27;;;35.97;;
12760;SDS011;6444;49.742;6.114;2023-04-09T04:28:54;79.57;;;33.60;;
12760;SDS011;6444;49.742;6.114;2023-04-09T04:31:20;78.50;;;32.90;;
12760;SDS011;6444;49.742;6.114;2023-04-09T04:33:47;77.60;;;33.03;;
12760;SDS011;6444;49.742;6.114;2023-04-09T04:36:15;77.20;;;32.93;;
12760;SDS011;6444;49.742;6.114;2023-04-09T04:38:41;119.30;;;52.05;;
12760;SDS011;6444;49.742;6.114;2023-04-09T04:41:09;96.47;;;38.83;;
12760;SDS011;6444;49.742;6.114;2023-04-09T04:43:34;84.53;;;34.60;;
12760;SDS011;6444;49.742;6.114;2023-04-09T04:46:01;115.20;;;51.85;;
12760;SDS011;6444;49.742;6.114;2023-04-09T04:48:28;101.03;;;38.13;;
12760;SDS011;6444;49.742;6.114;2023-04-09T04:50:56;92.67;;;35.50;;
12760;SDS011;6444;49.742;6.114;2023-04-09T04:53:24;94.60;;;36.23;;
12760;SDS011;6444;49.742;6.114;2023-04-09T04:55:50;93.67;;;34.67;;
12760;SDS011;6444;49.742;6.114;2023-04-09T04:58:17;98.50;;;36.10;;
12760;SDS011;6444;49.742;6.114;2023-04-09T05:00:44;89.27;;;35.63;;
12760;SDS011;6444;49.742;6.114;2023-04-09T05:03:10;90.47;;;34.57;;
12760;SDS011;6444;49.742;6.114;2023-04-09T05:05:37;92.10;;;34.93;;
12760;SDS011;6444;49.742;6.114;2023-04-09T05:08:03;90.03;;;35.03;;
12760;SDS011;6444;49.742;6.114;2023-04-09T05:10:30;80.10;;;34.13;;
12760;SDS011;6444;49.742;6.114;2023-04-09T05:12:57;85.00;;;35.80;;
12760;SDS011;6444;49.742;6.114;2023-04-09T05:15:23;89.00;;;35.47;;
12760;SDS011;6444;49.742;6.114;2023-04-09T05:17:50;94.80;;;36.17;;
12760;SDS011;6444;49.742;6.114;2023-04-09T05:20:17;91.40;;;36.27;;
12760;SDS011;6444;49.742;6.114;2023-04-09T05:22:44;100.10;;;35.97;;
12760;SDS011;6444;49.742;6.114;2023-04-09T05:25:10;83.60;;;35.33;;
12760;SDS011;6444;49.742;6.114;2023-04-09T05:27:37;89.40;;;35.83;;
12760;SDS011;6444;49.742;6.114;2023-04-09T05:30:04;85.67;;;34.80;;
12760;SDS011;6444;49.742;6.114;2023-04-09T05:32:30;93.50;;;37.37;;
12760;SDS011;6444;49.742;6.114;2023-04-09T05:34:58;88.37;;;34.80;;
12760;SDS011;6444;49.742;6.114;2023-04-09T05:37:24;94.27;;;35.30;;
12760;SDS011;6444;49.742;6.114;2023-04-09T05:39:51;86.47;;;34.20;;
12760;SDS011;6444;49.742;6.114;2023-04-09T05:42:18;89.80;;;35.03;;
12760;SDS011;6444;49.742;6.114;2023-04-09T05:44:45;79.20;;;34.37;;
12760;SDS011;6444;49.742;6.114;2023-04-09T05:47:12;79.23;;;33.80;;
12760;SDS011;6444;49.742;6.114;2023-04-09T05:49:38;78.30;;;34.23;;
12760;SDS011;6444;49.742;6.114;2023-04-09T05:52:05;76.43;;;34.43;;
12760;SDS011;6444;49.742;6.114;2023-04-09T05:54:32;74.73;;;33.80;;
12760;SDS011;6444;49.742;6.114;2023-04-09T05:56:59;62.97;;;31.73;;
12760;SDS011;6444;49.742;6.114;2023-04-09T05:59:26;50.70;;;28.40;;
12760;SDS011;6444;49.742;6.114;2023-04-09T06:01:52;42.57;;;24.13;;
12760;SDS011;6444;49.742;6.114;2023-04-09T06:04:20;38.50;;;23.40;;
12760;SDS011;6444;49.742;6.114;2023-04-09T06:06:46;32.33;;;19.27;;
12760;SDS011;6444;49.742;6.114;2023-04-09T06:09:13;33.40;;;19.77;;
12760;SDS011;6444;49.742;6.114;2023-04-09T06:11:39;35.10;;;21.75;;
12760;SDS011;6444;49.742;6.114;2023-04-09T06:14:06;34.72;;;23.25;;
12760;SDS011;6444;49.742;6.114;2023-04-09T06:16:33;35.35;;;21.73;;
12760;SDS011;6444;49.742;6.114;2023-04-09T06:18:59;36.50;;;28.90;;
12760;SDS011;6444;49.742;6.114;2023-04-09T06:21:27;38.03;;;24.25;;
12760;SDS011;6444;49.742;6.114;2023-04-09T06:23:53;32.72;;;24.27;;
12760;SDS011;6444;49.742;6.114;2023-04-09T06:26:20;29.25;;;22.98;;
12760;SDS011;6444;49.742;6.114;2023-04-09T06:28:47;36.95;;;25.85;;
12760;SDS011;6444;49.742;6.114;2023-04-09T06:31:13;36.25;;;23.90;;
12760;SDS011;6444;49.742;6.114;2023-04-09T06:33:40;32.28;;;23.25;;
12760;SDS011;6444;49.742;6.114;2023-04-09T06:36:07;31.98;;;23.50;;
12760;SDS011;6444;49.742;6.114;2023-04-09T06:38:34;30.02;;;23.77;;
12760;SDS011;6444;49.742;6.114;2023-04-09T06:41:01;31.67;;;25.37;;
12760;SDS011;6444;49.742;6.114;2023-04-09T06:43:27;33.33;;;24.05;;
12760;SDS011;6444;49.742;6.114;2023-04-09T06:45:54;30.35;;;23.40;;
12760;SDS011;6444;49.742;6.114;2023-04-09T06:48:21;32.25;;;24.10;;
12760;SDS011;6444;49.742;6.114;2023-04-09T06:50:48;28.83;;;22.62;;
12760;SDS011;6444;49.742;6.114;2023-04-09T06:53:14;27.08;;;22.25;;
12760;SDS011;6444;49.742;6.114;2023-04-09T06:55:41;29.23;;;23.48;;
12760;SDS011;6444;49.742;6.114;2023-04-09T06:58:08;28.40;;;22.48;;
12760;SDS011;6444;49.742;6.114;2023-04-09T07:00:34;29.67;;;24.30;;
12760;SDS011;6444;49.742;6.114;2023-04-09T07:03:01;27.25;;;22.85;;
12760;SDS011;6444;49.742;6.114;2023-04-09T07:05:28;30.85;;;25.05;;
12760;SDS011;6444;49.742;6.114;2023-04-09T07:07:54;30.58;;;25.55;;
12760;SDS011;6444;49.742;6.114;2023-04-09T07:10:21;33.00;;;26.62;;
12760;SDS011;6444;49.742;6.114;2023-04-09T07:12:47;37.03;;;29.12;;
12760;SDS011;6444;49.742;6.114;2023-04-09T07:15:14;41.15;;;36.75;;
12760;SDS011;6444;49.742;6.114;2023-04-09T07:17:41;35.13;;;30.95;;
12760;SDS011;6444;49.742;6.114;2023-04-09T07:20:07;30.73;;;26.77;;
12760;SDS011;6444;49.742;6.114;2023-04-09T07:22:34;29.70;;;25.12;;
12760;SDS011;6444;49.742;6.114;2023-04-09T07:25:01;30.55;;;25.50;;
12760;SDS011;6444;49.742;6.114;2023-04-09T07:27:27;29.80;;;26.10;;
12760;SDS011;6444;49.742;6.114;2023-04-09T07:29:54;30.80;;;25.60;;
12760;SDS011;6444;49.742;6.114;2023-04-09T07:32:21;28.55;;;25.45;;
12760;SDS011;6444;49.742;6.114;2023-04-09T07:34:47;28.62;;;24.10;;
12760;SDS011;6444;49.742;6.114;2023-04-09T07:37:14;29.90;;;24.17;;
12760;SDS011;6444;49.742;6.114;2023-04-09T07:39:41;28.17;;;23.27;;
12760;SDS011;6444;49.742;6.114;2023-04-09T07:42:08;27.10;;;24.15;;
12760;SDS011;6444;49.742;6.114;2023-04-09T07:44:35;27.40;;;24.08;;
12760;SDS011;6444;49.742;6.114;2023-04-09T07:47:02;29.35;;;23.77;;
12760;SDS011;6444;49.742;6.114;2023-04-09T07:49:28;24.65;;;21.85;;
12760;SDS011;6444;49.742;6.114;2023-04-09T07:51:55;27.70;;;24.40;;
12760;SDS011;6444;49.742;6.114;2023-04-09T07:54:21;28.25;;;23.65;;
12760;SDS011;6444;49.742;6.114;2023-04-09T07:56:48;27.42;;;22.65;;
12760;SDS011;6444;49.742;6.114;2023-04-09T07:59:14;24.05;;;21.50;;
12760;SDS011;6444;49.742;6.114;2023-04-09T08:01:44;25.10;;;22.17;;
12760;SDS011;6444;49.742;6.114;2023-04-09T08:04:10;26.45;;;23.65;;
12760;SDS011;6444;49.742;6.114;2023-04-09T08:06:38;22.17;;;19.77;;
12760;SDS011;6444;49.742;6.114;2023-04-09T08:09:04;21.58;;;18.87;;
12760;SDS011;6444;49.742;6.114;2023-04-09T08:11:31;19.42;;;17.00;;
12760;SDS011;6444;49.742;6.114;2023-04-09T08:13:58;19.02;;;17.02;;
12760;SDS011;6444;49.742;6.114;2023-04-09T08:16:24;18.02;;;15.98;;
12760;SDS011;6444;49.742;6.114;2023-04-09T08:18:52;19.15;;;17.15;;
12760;SDS011;6444;49.742;6.114;2023-04-09T08:21:18;17.60;;;15.85;;
12760;SDS011;6444;49.742;6.114;2023-04-09T08:23:45;15.98;;;14.38;;
12760;SDS011;6444;49.742;6.114;2023-04-09T08:26:12;16.27;;;14.60;;
12760;SDS011;6444;49.742;6.114;2023-04-09T08:28:38;15.32;;;13.70;;
12760;SDS011;6444;49.742;6.114;2023-04-09T08:31:05;15.90;;;14.23;;
12760;SDS011;6444;49.742;6.114;2023-04-09T08:33:31;14.68;;;13.20;;
12760;SDS011;6444;49.742;6.114;2023-04-09T08:35:58;15.23;;;13.62;;
12760;SDS011;6444;49.742;6.114;2023-04-09T08:38:25;14.85;;;13.38;;
12760;SDS011;6444;49.742;6.114;2023-04-09T08:40:52;15.43;;;13.57;;
12760;SDS011;6444;49.742;6.114;2023-04-09T08:43:18;14.93;;;13.43;;
12760;SDS011;6444;49.742;6.114;2023-04-09T08:45:46;14.65;;;13.15;;
12760;SDS011;6444;49.742;6.114;2023-04-09T08:48:12;14.15;;;12.75;;
12760;SDS011;6444;49.742;6.114;2023-04-09T08:50:39;14.10;;;12.68;;
12760;SDS011;6444;49.742;6.114;2023-04-09T08:53:06;13.95;;;12.55;;
12760;SDS011;6444;49.742;6.114;2023-04-09T08:55:32;13.95;;;12.55;;
12760;SDS011;6444;49.742;6.114;2023-04-09T08:57:59;12.40;;;11.20;;
12760;SDS011;6444;49.742;6.114;2023-04-09T09:00:26;13.38;;;12.07;;
12760;SDS011;6444;49.742;6.114;2023-04-09T09:03:09;12.90;;;11.60;;
12760;SDS011;6444;49.742;6.114;2023-04-09T09:08:01;13.40;;;12.10;;
12760;SDS011;6444;49.742;6.114;2023-04-09T09:16:10;18.70;;;16.70;;
12760;SDS011;6444;49.742;6.114;2023-04-09T09:18:37;13.10;;;11.80;;
12760;SDS011;6444;49.742;6.114;2023-04-09T09:21:12;10.77;;;9.77;;
12760;SDS011;6444;49.742;6.114;2023-04-09T09:23:39;11.48;;;10.38;;
12760;SDS011;6444;49.742;6.114;2023-04-09T09:26:16;9.75;;;8.88;;
12760;SDS011;6444;49.742;6.114;2023-04-09T09:28:41;20.73;;;18.73;;
12760;SDS011;6444;49.742;6.114;2023-04-09T09:31:08;14.05;;;12.10;;
12760;SDS011;6444;49.742;6.114;2023-04-09T09:33:35;9.07;;;8.20;;
12760;SDS011;6444;49.742;6.114;2023-04-09T09:36:01;8.27;;;7.47;;
12760;SDS011;6444;49.742;6.114;2023-04-09T09:38:30;5.87;;;5.37;;
12760;SDS011;6444;49.742;6.114;2023-04-09T09:40:57;9.95;;;8.93;;
12760;SDS011;6444;49.742;6.114;2023-04-09T09:43:24;6.65;;;5.87;;
12760;SDS011;6444;49.742;6.114;2023-04-09T09:45:50;7.12;;;5.90;;
12760;SDS011;6444;49.742;6.114;2023-04-09T09:48:18;6.07;;;5.47;;
12760;SDS011;6444;49.742;6.114;2023-04-09T09:50:44;7.70;;;6.90;;
12760;SDS011;6444;49.742;6.114;2023-04-09T09:53:11;7.62;;;6.20;;
12760;SDS011;6444;49.742;6.114;2023-04-09T09:55:38;7.90;;;6.37;;
12760;SDS011;6444;49.742;6.114;2023-04-09T09:58:24;7.70;;;7.00;;
12760;SDS011;6444;49.742;6.114;2023-04-09T10:00:43;8.35;;;6.72;;
12760;SDS011;6444;49.742;6.114;2023-04-09T10:03:13;7.82;;;6.35;;
12760;SDS011;6444;49.742;6.114;2023-04-09T10:05:38;7.10;;;6.18;;
12760;SDS011;6444;49.742;6.114;2023-04-09T10:08:05;13.15;;;10.95;;
12760;SDS011;6444;49.742;6.114;2023-04-09T10:10:31;7.30;;;6.03;;
12760;SDS011;6444;49.742;6.114;2023-04-09T10:12:58;6.90;;;6.20;;
12760;SDS011;6444;49.742;6.114;2023-04-09T10:15:26;6.97;;;6.27;;
12760;SDS011;6444;49.742;6.114;2023-04-09T10:17:51;6.00;;;5.40;;
12760;SDS011;6444;49.742;6.114;2023-04-09T10:20:19;7.57;;;5.93;;
12760;SDS011;6444;49.742;6.114;2023-04-09T10:22:45;5.85;;;5.25;;
12760;SDS011;6444;49.742;6.114;2023-04-09T10:25:12;7.00;;;6.05;;
12760;SDS011;6444;49.742;6.114;2023-04-09T10:27:38;7.10;;;6.40;;
12760;SDS011;6444;49.742;6.114;2023-04-09T10:30:05;6.70;;;5.62;;
12760;SDS011;6444;49.742;6.114;2023-04-09T10:32:35;6.78;;;5.35;;
12760;SDS011;6444;49.742;6.114;2023-04-09T10:35:02;5.75;;;5.15;;
12760;SDS011;6444;49.742;6.114;2023-04-09T10:37:30;6.10;;;5.28;;
12760;SDS011;6444;49.742;6.114;2023-04-09T10:39:56;5.87;;;5.25;;
12760;SDS011;6444;49.742;6.114;2023-04-09T10:42:31;5.55;;;4.97;;
12760;SDS011;6444;49.742;6.114;2023-04-09T10:45:05;6.20;;;5.60;;
12760;SDS011;6444;49.742;6.114;2023-04-09T10:47:32;6.57;;;5.87;;
12760;SDS011;6444;49.742;6.114;2023-04-09T10:49:59;5.82;;;5.30;;
12760;SDS011;6444;49.742;6.114;2023-04-09T10:52:28;6.20;;;5.53;;
12760;SDS011;6444;49.742;6.114;2023-04-09T10:54:51;6.47;;;5.80;;
12760;SDS011;6444;49.742;6.114;2023-04-09T10:57:19;8.15;;;6.40;;
12760;SDS011;6444;49.742;6.114;2023-04-09T10:59:45;7.00;;;5.68;;
12760;SDS011;6444;49.742;6.114;2023-04-09T11:02:58;7.83;;;6.93;;
12760;SDS011;6444;49.742;6.114;2023-04-09T11:07:39;6.53;;;5.22;;
12760;SDS011;6444;49.742;6.114;2023-04-09T11:10:04;6.25;;;4.95;;
12760;SDS011;6444;49.742;6.114;2023-04-09T11:12:32;7.03;;;6.03;;
12760;SDS011;6444;49.742;6.114;2023-04-09T11:14:58;5.85;;;5.25;;
12760;SDS011;6444;49.742;6.114;2023-04-09T11:17:24;6.82;;;5.87;;
12760;SDS011;6444;49.742;6.114;2023-04-09T11:19:51;6.78;;;5.47;;
12760;SDS011;6444;49.742;6.114;2023-04-09T11:22:17;5.70;;;5.12;;
12760;SDS011;6444;49.742;6.114;2023-04-09T11:24:45;6.05;;;5.37;;
12760;SDS011;6444;49.742;6.114;2023-04-09T11:27:11;6.40;;;5.80;;
12760;SDS011;6444;49.742;6.114;2023-04-09T11:29:37;6.70;;;6.00;;
12760;SDS011;6444;49.742;6.114;2023-04-09T11:32:04;7.22;;;5.82;;
12760;SDS011;6444;49.742;6.114;2023-04-09T11:34:31;7.00;;;6.30;;
12760;SDS011;6444;49.742;6.114;2023-04-09T11:36:57;6.37;;;5.78;;
12760;SDS011;6444;49.742;6.114;2023-04-09T11:39:24;6.75;;;6.05;;
12760;SDS011;6444;49.742;6.114;2023-04-09T11:41:50;7.15;;;6.45;;
12760;SDS011;6444;49.742;6.114;2023-04-09T11:44:19;7.18;;;6.45;;
12760;SDS011;6444;49.742;6.114;2023-04-09T11:46:44;6.45;;;5.78;;
12760;SDS011;6444;49.742;6.114;2023-04-09T11:49:10;6.87;;;6.18;;
12760;SDS011;6444;49.742;6.114;2023-04-09T11:51:37;7.45;;;6.50;;
12760;SDS011;6444;49.742;6.114;2023-04-09T11:54:04;7.80;;;7.10;;
12760;SDS011;6444;49.742;6.114;2023-04-09T11:56:31;7.47;;;6.70;;
12760;SDS011;6444;49.742;6.114;2023-04-09T11:58:57;6.65;;;5.95;;
12760;SDS011;6444;49.742;6.114;2023-04-09T12:01:23;6.82;;;6.12;;
12760;SDS011;6444;49.742;6.114;2023-04-09T12:03:51;6.28;;;5.60;;
12760;SDS011;6444;49.742;6.114;2023-04-09T12:06:18;7.03;;;6.32;;
12760;SDS011;6444;49.742;6.114;2023-04-09T12:08:44;7.03;;;6.00;;
12760;SDS011;6444;49.742;6.114;2023-04-09T12:11:12;6.25;;;5.65;;
12760;SDS011;6444;49.742;6.114;2023-04-09T12:13:38;6.37;;;5.77;;
12760;SDS011;6444;49.742;6.114;2023-04-09T12:16:05;6.20;;;5.60;;
12760;SDS011;6444;49.742;6.114;2023-04-09T12:18:34;6.57;;;5.43;;
12760;SDS011;6444;49.742;6.114;2023-04-09T12:20:58;6.20;;;5.60;;
12760;SDS011;6444;49.742;6.114;2023-04-09T12:23:25;5.65;;;5.10;;
12760;SDS011;6444;49.742;6.114;2023-04-09T12:25:52;6.45;;;5.85;;
12760;SDS011;6444;49.742;6.114;2023-04-09T12:28:19;6.32;;;5.72;;
12760;SDS011;6444;49.742;6.114;2023-04-09T12:30:45;6.45;;;5.53;;
12760;SDS011;6444;49.742;6.114;2023-04-09T12:33:13;5.10;;;4.60;;
12760;SDS011;6444;49.742;6.114;2023-04-09T12:35:39;5.87;;;5.00;;
12760;SDS011;6444;49.742;6.114;2023-04-09T12:38:06;5.30;;;4.80;;
12760;SDS011;6444;49.742;6.114;2023-04-09T12:40:33;5.75;;;5.00;;
12760;SDS011;6444;49.742;6.114;2023-04-09T12:43:02;5.20;;;4.55;;
12760;SDS011;6444;49.742;6.114;2023-04-09T12:45:29;6.28;;;5.68;;
12760;SDS011;6444;49.742;6.114;2023-04-09T12:47:55;4.75;;;4.32;;
12760;SDS011;6444;49.742;6.114;2023-04-09T12:50:22;6.07;;;5.47;;
12760;SDS011;6444;49.742;6.114;2023-04-09T12:52:48;7.68;;;6.53;;
12760;SDS011;6444;49.742;6.114;2023-04-09T12:55:15;17.90;;;12.80;;
12760;SDS011;6444;49.742;6.114;2023-04-09T12:57:42;15.45;;;10.15;;
12760;SDS011;6444;49.742;6.114;2023-04-09T13:00:08;21.70;;;13.38;;
12760;SDS011;6444;49.742;6.114;2023-04-09T13:02:35;5.50;;;4.95;;
12760;SDS011;6444;49.742;6.114;2023-04-09T13:05:01;7.28;;;6.50;;
12760;SDS011;6444;49.742;6.114;2023-04-09T13:07:28;12.02;;;9.10;;
12760;SDS011;6444;49.742;6.114;2023-04-09T13:09:56;5.32;;;4.82;;
12760;SDS011;6444;49.742;6.114;2023-04-09T13:12:22;4.62;;;4.10;;
12760;SDS011;6444;49.742;6.114;2023-04-09T13:14:49;5.75;;;4.87;;
12760;SDS011;6444;49.742;6.114;2023-04-09T13:17:15;9.43;;;8.00;;
12760;SDS011;6444;49.742;6.114;2023-04-09T13:19:43;5.47;;;4.97;;
12760;SDS011;6444;49.742;6.114;2023-04-09T13:22:09;5.43;;;4.62;;
12760;SDS011;6444;49.742;6.114;2023-04-09T13:24:36;4.78;;;4.22;;
12760;SDS011;6444;49.742;6.114;2023-04-09T13:27:05;5.65;;;4.93;;
12760;SDS011;6444;49.742;6.114;2023-04-09T13:29:32;6.87;;;6.05;;
12760;SDS011;6444;49.742;6.114;2023-04-09T13:31:59;5.47;;;4.97;;
12760;SDS011;6444;49.742;6.114;2023-04-09T13:34:25;6.07;;;5.47;;
12760;SDS011;6444;49.742;6.114;2023-04-09T13:36:52;5.45;;;4.95;;
12760;SDS011;6444;49.742;6.114;2023-04-09T13:39:19;5.47;;;4.97;;
12760;SDS011;6444;49.742;6.114;2023-04-09T13:41:45;4.85;;;4.15;;
12760;SDS011;6444;49.742;6.114;2023-04-09T13:44:12;4.60;;;4.12;;
12760;SDS011;6444;49.742;6.114;2023-04-09T13:46:39;4.87;;;4.32;;
12760;SDS011;6444;49.742;6.114;2023-04-09T13:49:06;5.68;;;4.47;;
12760;SDS011;6444;49.742;6.114;2023-04-09T13:51:32;5.60;;;4.62;;
12760;SDS011;6444;49.742;6.114;2023-04-09T13:53:59;5.57;;;4.93;;
12760;SDS011;6444;49.742;6.114;2023-04-09T13:56:26;4.30;;;3.90;;
12760;SDS011;6444;49.742;6.114;2023-04-09T13:58:52;5.20;;;4.70;;
12760;SDS011;6444;49.742;6.114;2023-04-09T14:01:19;4.85;;;4.00;;
12760;SDS011;6444;49.742;6.114;2023-04-09T14:03:46;4.78;;;4.28;;
12760;SDS011;6444;49.742;6.114;2023-04-09T14:06:12;6.00;;;5.40;;
12760;SDS011;6444;49.742;6.114;2023-04-09T14:08:39;5.10;;;4.60;;
12760;SDS011;6444;49.742;6.114;2023-04-09T14:11:05;5.70;;;4.85;;
12760;SDS011;6444;49.742;6.114;2023-04-09T14:13:32;5.25;;;4.75;;
12760;SDS011;6444;49.742;6.114;2023-04-09T14:15:59;5.80;;;4.40;;
12760;SDS011;6444;49.742;6.114;2023-04-09T14:18:26;4.03;;;3.62;;
12760;SDS011;6444;49.742;6.114;2023-04-09T14:20:53;4.25;;;3.42;;
12760;SDS011;6444;49.742;6.114;2023-04-09T14:23:19;4.75;;;3.75;;
12760;SDS011;6444;49.742;6.114;2023-04-09T14:25:46;4.55;;;4.10;;
12760;SDS011;6444;49.742;6.114;2023-04-09T14:28:13;4.00;;;3.45;;
12760;SDS011;6444;49.742;6.114;2023-04-09T14:30:39;4.75;;;3.78;;
12760;SDS011;6444;49.742;6.114;2023-04-09T14:33:06;4.53;;;3.83;;
12760;SDS011;6444;49.742;6.114;2023-04-09T14:35:32;4.68;;;4.18;;
12760;SDS011;6444;49.742;6.114;2023-04-09T14:37:59;4.30;;;3.90;;
12760;SDS011;6444;49.742;6.114;2023-04-09T14:40:26;4.05;;;3.65;;
12760;SDS011;6444;49.742;6.114;2023-04-09T14:42:52;4.12;;;3.30;;
12760;SDS011;6444;49.742;6.114;2023-04-09T14:45:19;3.42;;;3.12;;
12760;SDS011;6444;49.742;6.114;2023-04-09T14:47:46;3.50;;;3.20;;
12760;SDS011;6444;49.742;6.114;2023-04-09T14:50:12;3.85;;;3.50;;
12760;SDS011;6444;49.742;6.114;2023-04-09T14:52:39;4.20;;;3.42;;
12760;SDS011;6444;49.742;6.114;2023-04-09T14:55:05;5.78;;;3.33;;
12760;SDS011;6444;49.742;6.114;2023-04-09T14:57:32;5.32;;;3.70;;
12760;SDS011;6444;49.742;6.114;2023-04-09T14:59:59;3.20;;;2.90;;